Terminal Aerodrome Forecast
Issued by NWS Amarillo, TX

Home | Current Version | Previous Version | Text Only | Print | Product List | Glossary On
Versions: 1 2 3 4 5 6 7 8 9 10 11 12 13 14 15
091
FTUS44 KAMA 270429 AAB
TAFAMA
TAF AMD
KAMA 270429Z 2704/2724 20011KT P6SM SCT100 BKN300
      TEMPO 2704/2706 6SM TSRA OVC040CB
     FM271200 23010KT P6SM BKN120 OVC300
     FM271700 07010KT P6SM SCT060 BKN300=

USA.gov is the U.S. government's official web portal to all federal, state and local government web resources and services.